Seiyu Maru — JD3189 — position and weather

sailwx.info

Track history (hours):
 
Tides and Currents Weather Stations Pressure Air Temp Water Temp Dewpoint Dewpoint Depression Visibility Wind Speed Wind Dir Waves Ship Positions

Seiyu Maru

Last reported at 2014-Dec-18 01:33 UTC. Time now 2014-Dec-18 15:25 UTC.
Position N 35°20' E 139°42'.

Length 75 m; draft 4.5 m.

Type: Cargo ship. MMSI: 431002433.

Date/timePositionNaut miles runAvg speedWind from/ knotsBaromVisibWave heightAir tempDewpointWater temp
2014-Dec-18 01:33N 35°20' E 139°42'3 3.1
2014-Dec-18 00:34N 35°22' E 139°40'0 0.0
2014-Dec-17 23:31N 35°22' E 139°40'0 0.0
2014-Dec-17 22:31N 35°22' E 139°40'0 0.0
2014-Dec-17 21:34N 35°22' E 139°40'0 0.0
2014-Dec-17 20:34N 35°22' E 139°40'0 0.0
2014-Dec-17 19:25N 35°22' E 139°40'0 0.0
2014-Dec-17 18:33N 35°22' E 139°40'0 0.0
2014-Dec-17 17:33N 35°22' E 139°40'0 0.0
2014-Dec-17 16:33N 35°22' E 139°40'0 0.0
2014-Dec-17 15:32N 35°22' E 139°40'0 0.0
2014-Dec-17 14:32N 35°22' E 139°40'0 0.0
2014-Dec-17 13:30N 35°22' E 139°40'0 0.0
2014-Dec-17 12:31N 35°22' E 139°40'0 0.0
2014-Dec-17 11:33N 35°22' E 139°40'0 0.0
2014-Dec-17 10:33N 35°22' E 139°40'0 0.0
2014-Dec-17 09:33N 35°22' E 139°40'0 0.0
2014-Dec-17 08:33N 35°22' E 139°40'0 0.0
2014-Dec-17 07:33N 35°22' E 139°40'0 0.0
2014-Dec-17 06:31N 35°22' E 139°40'0 0.0
2014-Dec-17 05:33N 35°22' E 139°40'0 0.0
2014-Dec-17 04:30N 35°22' E 139°40'0 0.0
2014-Dec-17 03:33N 35°22' E 139°40'0 0.0
2014-Dec-17 02:32N 35°22' E 139°40'0 0.0
2014-Dec-17 01:32N 35°22' E 139°40'0 0.0
2014-Dec-17 00:29N 35°22' E 139°40'0 0.0
2014-Dec-16 23:33N 35°22' E 139°40'0 0.0
2014-Dec-16 22:33N 35°22' E 139°40'0 0.1
2014-Dec-16 21:33N 35°22' E 139°40'0 0.0
2014-Dec-16 20:33N 35°22' E 139°40'0 0.0
2014-Dec-16 19:33N 35°22' E 139°40'0 0.1
2014-Dec-16 18:33N 35°22' E 139°40'0 0.1
2014-Dec-16 17:32N 35°22' E 139°40'0 0.0
2014-Dec-16 16:32N 35°22' E 139°40'0 0.0
2014-Dec-16 15:32N 35°22' E 139°40'0 0.1
2014-Dec-16 14:33N 35°22' E 139°40'0 0.0
2014-Dec-16 13:31N 35°22' E 139°40'0 0.0
2014-Dec-16 12:33N 35°22' E 139°40'0 0.1
2014-Dec-16 11:32N 35°22' E 139°40'0 0.0
2014-Dec-16 10:31N 35°22' E 139°40'0 0.0
2014-Dec-16 09:31N 35°22' E 139°40'0 0.0
2014-Dec-16 08:31N 35°22' E 139°40'0 0.0
2014-Dec-16 07:31N 35°22' E 139°40'0 0.0
2014-Dec-16 06:28N 35°22' E 139°40'0 0.0
2014-Dec-16 05:23N 35°22' E 139°40'7 8.5
2014-Dec-16 04:33N 35°25' E 139°47'5 0.3
2014-Dec-15 13:30N 35°21' E 139°51'0 0.3
2014-Dec-15 12:33N 35°21' E 139°51'0 0.0
2014-Dec-15 11:33N 35°21' E 139°51'0 0.0
2014-Dec-15 10:33N 35°21' E 139°51'3 3.1
2014-Dec-15 09:33N 35°24' E 139°48'6 6.5
2014-Dec-15 08:33N 35°24' E 139°40'0 0.0
2014-Dec-15 07:33N 35°24' E 139°40'0 0.0
2014-Dec-15 06:33N 35°24' E 139°40'  
2014-Dec-12 22:18N 35°24' E 139°40'2 2.1
2014-Dec-12 21:33N 35°23' E 139°41'1111.1
2014-Dec-12 20:33N 35°13' E 139°47'  
2014-Dec-08 03:33N 34°02' E 134°59'1211.7
2014-Dec-08 02:33N 34°14' E 134°59'  
Track history (hours):
 
Tides and Currents Weather Stations Pressure Air Temp Water Temp Dewpoint Dewpoint Depression Visibility Wind Speed Wind Dir Waves Ship Positions

Seiyu Maru

Last reported at 2014-Dec-18 01:33 UTC. Time now 2014-Dec-18 15:25 UTC.
Position N 35°20' E 139°42'.

Length 75 m; draft 4.5 m.

Type: Cargo ship. MMSI: 431002433.

Date/timePositionNaut miles runAvg speedWind from/ knotsBaromVisibWave heightAir tempDewpointWater temp
2014-Dec-18 01:33N 35°20' E 139°42'3 3.1
2014-Dec-18 00:34N 35°22' E 139°40'0 0.0
2014-Dec-17 23:31N 35°22' E 139°40'0 0.0
2014-Dec-17 22:31N 35°22' E 139°40'0 0.0
2014-Dec-17 21:34N 35°22' E 139°40'0 0.0
2014-Dec-17 20:34N 35°22' E 139°40'0 0.0
2014-Dec-17 19:25N 35°22' E 139°40'0 0.0
2014-Dec-17 18:33N 35°22' E 139°40'0 0.0
2014-Dec-17 17:33N 35°22' E 139°40'0 0.0
2014-Dec-17 16:33N 35°22' E 139°40'0 0.0
2014-Dec-17 15:32N 35°22' E 139°40'0 0.0
2014-Dec-17 14:32N 35°22' E 139°40'0 0.0
2014-Dec-17 13:30N 35°22' E 139°40'0 0.0
2014-Dec-17 12:31N 35°22' E 139°40'0 0.0
2014-Dec-17 11:33N 35°22' E 139°40'0 0.0
2014-Dec-17 10:33N 35°22' E 139°40'0 0.0
2014-Dec-17 09:33N 35°22' E 139°40'0 0.0
2014-Dec-17 08:33N 35°22' E 139°40'0 0.0
2014-Dec-17 07:33N 35°22' E 139°40'0 0.0
2014-Dec-17 06:31N 35°22' E 139°40'0 0.0
2014-Dec-17 05:33N 35°22' E 139°40'0 0.0
2014-Dec-17 04:30N 35°22' E 139°40'0 0.0
2014-Dec-17 03:33N 35°22' E 139°40'0 0.0
2014-Dec-17 02:32N 35°22' E 139°40'0 0.0
2014-Dec-17 01:32N 35°22' E 139°40'0 0.0
2014-Dec-17 00:29N 35°22' E 139°40'0 0.0
2014-Dec-16 23:33N 35°22' E 139°40'0 0.0
2014-Dec-16 22:33N 35°22' E 139°40'0 0.1
2014-Dec-16 21:33N 35°22' E 139°40'0 0.0
2014-Dec-16 20:33N 35°22' E 139°40'0 0.0
2014-Dec-16 19:33N 35°22' E 139°40'0 0.1
2014-Dec-16 18:33N 35°22' E 139°40'0 0.1
2014-Dec-16 17:32N 35°22' E 139°40'0 0.0
2014-Dec-16 16:32N 35°22' E 139°40'0 0.0
2014-Dec-16 15:32N 35°22' E 139°40'0 0.1
2014-Dec-16 14:33N 35°22' E 139°40'0 0.0
2014-Dec-16 13:31N 35°22' E 139°40'0 0.0
2014-Dec-16 12:33N 35°22' E 139°40'0 0.1
2014-Dec-16 11:32N 35°22' E 139°40'0 0.0
2014-Dec-16 10:31N 35°22' E 139°40'0 0.0
2014-Dec-16 09:31N 35°22' E 139°40'0 0.0
2014-Dec-16 08:31N 35°22' E 139°40'0 0.0
2014-Dec-16 07:31N 35°22' E 139°40'0 0.0
2014-Dec-16 06:28N 35°22' E 139°40'0 0.0
2014-Dec-16 05:23N 35°22' E 139°40'7 8.5
2014-Dec-16 04:33N 35°25' E 139°47'5 0.3
2014-Dec-15 13:30N 35°21' E 139°51'0 0.3
2014-Dec-15 12:33N 35°21' E 139°51'0 0.0
2014-Dec-15 11:33N 35°21' E 139°51'0 0.0
2014-Dec-15 10:33N 35°21' E 139°51'3 3.1
2014-Dec-15 09:33N 35°24' E 139°48'6 6.5
2014-Dec-15 08:33N 35°24' E 139°40'0 0.0
2014-Dec-15 07:33N 35°24' E 139°40'0 0.0
2014-Dec-15 06:33N 35°24' E 139°40'  
2014-Dec-12 22:18N 35°24' E 139°40'2 2.1
2014-Dec-12 21:33N 35°23' E 139°41'1111.1
2014-Dec-12 20:33N 35°13' E 139°47'  
2014-Dec-08 03:33N 34°02' E 134°59'1211.7
2014-Dec-08 02:33N 34°14' E 134°59'  

Dump ship's entire track history